sensor_id;sensor_type;location;lat;lon;timestamp;temperature;humidity
22781;DHT22;11557;50.884;4.322;2022-09-09T00:02:21;18.00;99.90
22781;DHT22;11557;50.884;4.322;2022-09-09T00:15:44;18.10;99.90
22781;DHT22;11557;50.884;4.322;2022-09-09T00:23:27;17.90;99.90
22781;DHT22;11557;50.884;4.322;2022-09-09T00:26:14;17.90;99.90
22781;DHT22;11557;50.884;4.322;2022-09-09T00:31:25;17.80;99.90
22781;DHT22;11557;50.884;4.322;2022-09-09T00:33:53;17.80;99.90
22781;DHT22;11557;50.884;4.322;2022-09-09T00:36:22;17.80;99.90
22781;DHT22;11557;50.884;4.322;2022-09-09T00:38:52;17.80;99.90
22781;DHT22;11557;50.884;4.322;2022-09-09T00:46:56;17.90;99.90
22781;DHT22;11557;50.884;4.322;2022-09-09T00:49:39;17.90;99.90
22781;DHT22;11557;50.884;4.322;2022-09-09T00:52:24;17.80;99.90
22781;DHT22;11557;50.884;4.322;2022-09-09T00:55:13;17.70;99.90
22781;DHT22;11557;50.884;4.322;2022-09-09T00:57:41;17.80;99.90
22781;DHT22;11557;50.884;4.322;2022-09-09T01:05:30;17.70;99.90
22781;DHT22;11557;50.884;4.322;2022-09-09T01:08:01;17.80;99.90
22781;DHT22;11557;50.884;4.322;2022-09-09T01:10:50;17.80;99.90
22781;DHT22;11557;50.884;4.322;2022-09-09T01:13:31;17.80;99.90
22781;DHT22;11557;50.884;4.322;2022-09-09T01:16:01;17.80;99.90
22781;DHT22;11557;50.884;4.322;2022-09-09T01:18:48;17.80;99.90
22781;DHT22;11557;50.884;4.322;2022-09-09T01:21:37;17.80;99.90
22781;DHT22;11557;50.884;4.322;2022-09-09T01:26:46;17.80;99.90
22781;DHT22;11557;50.884;4.322;2022-09-09T01:29:15;17.80;99.90
22781;DHT22;11557;50.884;4.322;2022-09-09T01:34:17;17.70;99.90
22781;DHT22;11557;50.884;4.322;2022-09-09T01:39:18;17.60;99.90
22781;DHT22;11557;50.884;4.322;2022-09-09T01:41:45;17.50;99.90
22781;DHT22;11557;50.884;4.322;2022-09-09T01:44:11;17.50;99.90
22781;DHT22;11557;50.884;4.322;2022-09-09T01:46:37;17.40;99.90
22781;DHT22;11557;50.884;4.322;2022-09-09T01:49:05;17.30;99.90
22781;DHT22;11557;50.884;4.322;2022-09-09T01:51:33;17.40;99.90
22781;DHT22;11557;50.884;4.322;2022-09-09T01:53:59;17.30;99.90
22781;DHT22;11557;50.884;4.322;2022-09-09T02:04:20;17.30;99.90
22781;DHT22;11557;50.884;4.322;2022-09-09T02:06:49;17.30;99.90
22781;DHT22;11557;50.884;4.322;2022-09-09T02:09:23;17.30;99.90
22781;DHT22;11557;50.884;4.322;2022-09-09T02:11:52;17.30;99.90
22781;DHT22;11557;50.884;4.322;2022-09-09T02:14:25;17.30;99.90
22781;DHT22;11557;50.884;4.322;2022-09-09T02:17:10;17.40;99.90
22781;DHT22;11557;50.884;4.322;2022-09-09T02:19:42;17.40;99.90
22781;DHT22;11557;50.884;4.322;2022-09-09T02:22:11;17.40;99.90
22781;DHT22;11557;50.884;4.322;2022-09-09T02:24:39;17.40;99.90
22781;DHT22;11557;50.884;4.322;2022-09-09T02:27:07;17.40;99.90
22781;DHT22;11557;50.884;4.322;2022-09-09T02:29:40;17.50;99.90
22781;DHT22;11557;50.884;4.322;2022-09-09T02:32:10;17.30;99.90
22781;DHT22;11557;50.884;4.322;2022-09-09T02:34:44;17.30;99.90
22781;DHT22;11557;50.884;4.322;2022-09-09T02:37:11;17.30;99.90
22781;DHT22;11557;50.884;4.322;2022-09-09T02:39:38;17.10;99.90
22781;DHT22;11557;50.884;4.322;2022-09-09T02:42:04;17.20;99.90
22781;DHT22;11557;50.884;4.322;2022-09-09T02:44:30;17.10;99.90
22781;DHT22;11557;50.884;4.322;2022-09-09T02:52:20;17.20;99.90
22781;DHT22;11557;50.884;4.322;2022-09-09T02:54:57;17.10;99.90
22781;DHT22;11557;50.884;4.322;2022-09-09T02:57:27;17.20;99.90
22781;DHT22;11557;50.884;4.322;2022-09-09T03:00:00;17.20;99.90
22781;DHT22;11557;50.884;4.322;2022-09-09T03:02:26;17.20;99.90
22781;DHT22;11557;50.884;4.322;2022-09-09T03:04:52;17.10;99.90
22781;DHT22;11557;50.884;4.322;2022-09-09T03:07:19;17.00;99.90
22781;DHT22;11557;50.884;4.322;2022-09-09T03:09:45;17.00;99.90
22781;DHT22;11557;50.884;4.322;2022-09-09T03:12:11;16.90;99.90
22781;DHT22;11557;50.884;4.322;2022-09-09T03:14:37;16.90;99.90
22781;DHT22;11557;50.884;4.322;2022-09-09T03:17:04;17.00;99.90
22781;DHT22;11557;50.884;4.322;2022-09-09T03:19:30;16.90;99.90
22781;DHT22;11557;50.884;4.322;2022-09-09T03:21:57;17.00;99.90
22781;DHT22;11557;50.884;4.322;2022-09-09T03:24:23;17.00;99.90
22781;DHT22;11557;50.884;4.322;2022-09-09T03:26:49;17.00;99.90
22781;DHT22;11557;50.884;4.322;2022-09-09T03:29:16;16.90;99.90
22781;DHT22;11557;50.884;4.322;2022-09-09T03:31:43;17.00;99.90
22781;DHT22;11557;50.884;4.322;2022-09-09T03:34:09;17.00;99.90
22781;DHT22;11557;50.884;4.322;2022-09-09T03:36:35;16.90;99.90
22781;DHT22;11557;50.884;4.322;2022-09-09T03:39:02;16.90;99.90
22781;DHT22;11557;50.884;4.322;2022-09-09T03:41:29;16.90;99.90
22781;DHT22;11557;50.884;4.322;2022-09-09T03:43:55;17.00;99.90
22781;DHT22;11557;50.884;4.322;2022-09-09T03:46:22;16.90;99.90
22781;DHT22;11557;50.884;4.322;2022-09-09T03:48:49;16.90;99.90
22781;DHT22;11557;50.884;4.322;2022-09-09T03:51:15;16.90;99.90
22781;DHT22;11557;50.884;4.322;2022-09-09T03:53:41;17.00;99.90
22781;DHT22;11557;50.884;4.322;2022-09-09T03:56:07;17.00;99.90
22781;DHT22;11557;50.884;4.322;2022-09-09T03:58:34;17.10;99.90
22781;DHT22;11557;50.884;4.322;2022-09-09T04:01:02;17.00;99.90
22781;DHT22;11557;50.884;4.322;2022-09-09T04:03:29;17.00;99.90
22781;DHT22;11557;50.884;4.322;2022-09-09T04:05:56;17.00;99.90
22781;DHT22;11557;50.884;4.322;2022-09-09T04:08:22;17.00;99.90
22781;DHT22;11557;50.884;4.322;2022-09-09T04:10:51;17.10;99.90
22781;DHT22;11557;50.884;4.322;2022-09-09T04:13:17;16.90;99.90
22781;DHT22;11557;50.884;4.322;2022-09-09T04:15:56;16.80;99.90
22781;DHT22;11557;50.884;4.322;2022-09-09T04:18:23;16.90;99.90
22781;DHT22;11557;50.884;4.322;2022-09-09T04:20:50;16.80;99.90
22781;DHT22;11557;50.884;4.322;2022-09-09T04:23:17;16.90;99.90
22781;DHT22;11557;50.884;4.322;2022-09-09T04:25:51;16.80;99.90
22781;DHT22;11557;50.884;4.322;2022-09-09T04:28:18;16.90;99.90
22781;DHT22;11557;50.884;4.322;2022-09-09T04:30:53;16.80;99.90
22781;DHT22;11557;50.884;4.322;2022-09-09T04:33:19;16.90;99.90
22781;DHT22;11557;50.884;4.322;2022-09-09T04:35:49;16.90;99.90
22781;DHT22;11557;50.884;4.322;2022-09-09T04:38:16;17.20;99.90
22781;DHT22;11557;50.884;4.322;2022-09-09T04:40:46;16.90;99.90
22781;DHT22;11557;50.884;4.322;2022-09-09T04:43:12;16.90;99.90
22781;DHT22;11557;50.884;4.322;2022-09-09T04:45:40;16.90;99.90
22781;DHT22;11557;50.884;4.322;2022-09-09T04:48:06;16.70;99.90
22781;DHT22;11557;50.884;4.322;2022-09-09T04:50:35;16.70;99.90
22781;DHT22;11557;50.884;4.322;2022-09-09T04:53:02;16.70;99.90
22781;DHT22;11557;50.884;4.322;2022-09-09T04:55:28;16.70;99.90
22781;DHT22;11557;50.884;4.322;2022-09-09T04:57:54;16.80;99.90
22781;DHT22;11557;50.884;4.322;2022-09-09T05:00:19;16.70;99.90
22781;DHT22;11557;50.884;4.322;2022-09-09T05:02:45;16.70;99.90
22781;DHT22;11557;50.884;4.322;2022-09-09T05:05:11;16.70;99.90
22781;DHT22;11557;50.884;4.322;2022-09-09T05:07:37;16.70;99.90
22781;DHT22;11557;50.884;4.322;2022-09-09T05:10:03;16.70;99.90
22781;DHT22;11557;50.884;4.322;2022-09-09T05:12:30;16.80;99.90
22781;DHT22;11557;50.884;4.322;2022-09-09T05:14:56;16.80;99.90
22781;DHT22;11557;50.884;4.322;2022-09-09T05:17:22;16.60;99.90
22781;DHT22;11557;50.884;4.322;2022-09-09T05:19:48;16.50;99.90
22781;DHT22;11557;50.884;4.322;2022-09-09T05:22:21;16.60;99.90
22781;DHT22;11557;50.884;4.322;2022-09-09T05:24:49;16.60;99.90
22781;DHT22;11557;50.884;4.322;2022-09-09T05:27:18;16.60;99.90
22781;DHT22;11557;50.884;4.322;2022-09-09T05:29:45;16.70;99.90
22781;DHT22;11557;50.884;4.322;2022-09-09T05:32:11;16.60;99.90
22781;DHT22;11557;50.884;4.322;2022-09-09T05:34:36;17.00;99.90
22781;DHT22;11557;50.884;4.322;2022-09-09T05:37:03;16.80;99.90
22781;DHT22;11557;50.884;4.322;2022-09-09T05:39:29;16.80;99.90
22781;DHT22;11557;50.884;4.322;2022-09-09T05:41:55;16.70;99.90
22781;DHT22;11557;50.884;4.322;2022-09-09T05:44:21;16.80;99.90
22781;DHT22;11557;50.884;4.322;2022-09-09T05:46:48;16.70;99.90
22781;DHT22;11557;50.884;4.322;2022-09-09T05:49:15;16.80;99.90
22781;DHT22;11557;50.884;4.322;2022-09-09T05:51:41;16.90;99.90
22781;DHT22;11557;50.884;4.322;2022-09-09T05:54:08;16.90;99.90
22781;DHT22;11557;50.884;4.322;2022-09-09T05:56:33;16.90;99.90
22781;DHT22;11557;50.884;4.322;2022-09-09T05:58:59;16.90;99.90
22781;DHT22;11557;50.884;4.322;2022-09-09T06:01:30;16.90;99.90
22781;DHT22;11557;50.884;4.322;2022-09-09T06:03:56;16.70;99.90
22781;DHT22;11557;50.884;4.322;2022-09-09T06:06:24;16.80;99.90
22781;DHT22;11557;50.884;4.322;2022-09-09T06:08:53;16.80;99.90
22781;DHT22;11557;50.884;4.322;2022-09-09T06:11:21;16.80;99.90
22781;DHT22;11557;50.884;4.322;2022-09-09T06:13:47;17.00;99.90
22781;DHT22;11557;50.884;4.322;2022-09-09T06:16:17;17.00;99.90
22781;DHT22;11557;50.884;4.322;2022-09-09T06:18:44;17.20;99.90
22781;DHT22;11557;50.884;4.322;2022-09-09T06:21:19;17.20;99.90
22781;DHT22;11557;50.884;4.322;2022-09-09T06:23:46;17.20;99.90
22781;DHT22;11557;50.884;4.322;2022-09-09T06:26:18;17.60;99.90
22781;DHT22;11557;50.884;4.322;2022-09-09T06:28:46;17.20;99.90
22781;DHT22;11557;50.884;4.322;2022-09-09T06:31:14;17.10;99.90
22781;DHT22;11557;50.884;4.322;2022-09-09T06:33:41;17.10;99.90
22781;DHT22;11557;50.884;4.322;2022-09-09T06:36:15;17.00;99.90
22781;DHT22;11557;50.884;4.322;2022-09-09T06:38:41;17.00;99.90
22781;DHT22;11557;50.884;4.322;2022-09-09T06:41:08;17.00;99.90
22781;DHT22;11557;50.884;4.322;2022-09-09T06:43:34;17.10;99.90
22781;DHT22;11557;50.884;4.322;2022-09-09T06:46:08;17.10;99.90
22781;DHT22;11557;50.884;4.322;2022-09-09T06:48:35;17.20;99.90
22781;DHT22;11557;50.884;4.322;2022-09-09T06:51:09;17.10;99.90
22781;DHT22;11557;50.884;4.322;2022-09-09T06:53:37;17.20;99.90
22781;DHT22;11557;50.884;4.322;2022-09-09T06:58:35;17.40;99.90
22781;DHT22;11557;50.884;4.322;2022-09-09T07:01:12;17.50;99.90
22781;DHT22;11557;50.884;4.322;2022-09-09T07:03:39;17.60;99.90
22781;DHT22;11557;50.884;4.322;2022-09-09T07:06:05;17.50;99.90
22781;DHT22;11557;50.884;4.322;2022-09-09T07:08:32;17.50;99.90
22781;DHT22;11557;50.884;4.322;2022-09-09T07:11:05;17.50;99.90
22781;DHT22;11557;50.884;4.322;2022-09-09T07:13:31;17.40;99.90
22781;DHT22;11557;50.884;4.322;2022-09-09T07:16:08;17.50;99.90
22781;DHT22;11557;50.884;4.322;2022-09-09T07:18:34;17.60;99.90
22781;DHT22;11557;50.884;4.322;2022-09-09T07:21:00;17.70;99.90
22781;DHT22;11557;50.884;4.322;2022-09-09T07:23:28;17.70;99.90
22781;DHT22;11557;50.884;4.322;2022-09-09T07:25:54;17.60;99.90
22781;DHT22;11557;50.884;4.322;2022-09-09T07:28:20;17.50;99.90
22781;DHT22;11557;50.884;4.322;2022-09-09T07:30:55;17.60;99.90
22781;DHT22;11557;50.884;4.322;2022-09-09T07:33:21;17.70;99.90
22781;DHT22;11557;50.884;4.322;2022-09-09T07:35:47;17.70;99.90
22781;DHT22;11557;50.884;4.322;2022-09-09T07:38:13;17.70;99.90
22781;DHT22;11557;50.884;4.322;2022-09-09T07:40:40;17.70;99.90
22781;DHT22;11557;50.884;4.322;2022-09-09T07:43:06;17.70;99.90
22781;DHT22;11557;50.884;4.322;2022-09-09T07:45:33;17.50;99.90
22781;DHT22;11557;50.884;4.322;2022-09-09T07:47:59;17.50;99.90
22781;DHT22;11557;50.884;4.322;2022-09-09T07:50:25;17.60;99.90
22781;DHT22;11557;50.884;4.322;2022-09-09T07:52:52;17.80;99.90
22781;DHT22;11557;50.884;4.322;2022-09-09T07:55:19;17.90;99.90
22781;DHT22;11557;50.884;4.322;2022-09-09T07:57:45;18.00;99.90
22781;DHT22;11557;50.884;4.322;2022-09-09T08:00:12;18.10;99.90
22781;DHT22;11557;50.884;4.322;2022-09-09T08:02:40;18.00;99.90
22781;DHT22;11557;50.884;4.322;2022-09-09T08:05:05;18.10;99.90
22781;DHT22;11557;50.884;4.322;2022-09-09T08:07:31;18.10;99.90
22781;DHT22;11557;50.884;4.322;2022-09-09T08:09:57;18.20;99.90
22781;DHT22;11557;50.884;4.322;2022-09-09T08:12:23;18.20;99.90
22781;DHT22;11557;50.884;4.322;2022-09-09T08:14:48;18.20;99.90
22781;DHT22;11557;50.884;4.322;2022-09-09T08:17:14;18.40;99.90
22781;DHT22;11557;50.884;4.322;2022-09-09T08:19:40;18.40;99.90
22781;DHT22;11557;50.884;4.322;2022-09-09T08:22:05;18.40;99.90
22781;DHT22;11557;50.884;4.322;2022-09-09T08:24:31;18.30;99.90
22781;DHT22;11557;50.884;4.322;2022-09-09T08:26:57;18.20;99.90
22781;DHT22;11557;50.884;4.322;2022-09-09T08:29:23;18.00;99.90
22781;DHT22;11557;50.884;4.322;2022-09-09T08:31:53;18.00;99.90
22781;DHT22;11557;50.884;4.322;2022-09-09T08:34:20;18.10;99.90
22781;DHT22;11557;50.884;4.322;2022-09-09T08:36:48;18.00;99.90
22781;DHT22;11557;50.884;4.322;2022-09-09T08:39:15;17.90;99.90
22781;DHT22;11557;50.884;4.322;2022-09-09T08:49:59;17.50;99.90
22781;DHT22;11557;50.884;4.322;2022-09-09T08:52:53;17.50;99.90
22781;DHT22;11557;50.884;4.322;2022-09-09T08:55:28;17.50;99.90
22781;DHT22;11557;50.884;4.322;2022-09-09T08:57:58;17.40;99.90
22781;DHT22;11557;50.884;4.322;2022-09-09T09:00:36;17.50;99.90
22781;DHT22;11557;50.884;4.322;2022-09-09T09:03:28;17.50;99.90
22781;DHT22;11557;50.884;4.322;2022-09-09T09:06:04;17.50;99.90
22781;DHT22;11557;50.884;4.322;2022-09-09T09:08:38;17.60;99.90
22781;DHT22;11557;50.884;4.322;2022-09-09T09:11:07;17.20;99.90
22781;DHT22;11557;50.884;4.322;2022-09-09T09:13:40;17.60;99.90
22781;DHT22;11557;50.884;4.322;2022-09-09T09:16:34;17.50;99.90
22781;DHT22;11557;50.884;4.322;2022-09-09T09:19:02;17.50;99.90
22781;DHT22;11557;50.884;4.322;2022-09-09T09:24:45;17.60;99.90
22781;DHT22;11557;50.884;4.322;2022-09-09T09:27:28;17.60;99.90
22781;DHT22;11557;50.884;4.322;2022-09-09T09:29:56;17.60;99.90
22781;DHT22;11557;50.884;4.322;2022-09-09T09:32:24;17.60;99.90
22781;DHT22;11557;50.884;4.322;2022-09-09T09:34:57;17.60;99.90
22781;DHT22;11557;50.884;4.322;2022-09-09T09:37:33;17.60;99.90
22781;DHT22;11557;50.884;4.322;2022-09-09T09:40:11;17.50;99.90
22781;DHT22;11557;50.884;4.322;2022-09-09T09:42:38;17.40;99.90
22781;DHT22;11557;50.884;4.322;2022-09-09T09:45:35;17.60;99.90
22781;DHT22;11557;50.884;4.322;2022-09-09T09:48:11;17.70;99.90
22781;DHT22;11557;50.884;4.322;2022-09-09T09:55:58;17.80;99.90
22781;DHT22;11557;50.884;4.322;2022-09-09T09:58:32;17.80;99.90
22781;DHT22;11557;50.884;4.322;2022-09-09T10:01:00;17.80;99.90
22781;DHT22;11557;50.884;4.322;2022-09-09T10:03:34;17.90;99.90
22781;DHT22;11557;50.884;4.322;2022-09-09T10:06:03;17.80;99.90
22781;DHT22;11557;50.884;4.322;2022-09-09T10:08:29;17.80;99.90
22781;DHT22;11557;50.884;4.322;2022-09-09T10:14:01;17.90;99.90
22781;DHT22;11557;50.884;4.322;2022-09-09T10:16:49;18.10;99.90
22781;DHT22;11557;50.884;4.322;2022-09-09T10:19:36;18.40;99.90
22781;DHT22;11557;50.884;4.322;2022-09-09T10:22:19;18.40;99.90
22781;DHT22;11557;50.884;4.322;2022-09-09T10:30:21;18.50;99.90
22781;DHT22;11557;50.884;4.322;2022-09-09T10:33:08;18.70;99.90
22781;DHT22;11557;50.884;4.322;2022-09-09T10:36:00;18.70;99.90
22781;DHT22;11557;50.884;4.322;2022-09-09T10:38:40;18.70;99.90
22781;DHT22;11557;50.884;4.322;2022-09-09T10:41:15;18.70;99.90
22781;DHT22;11557;50.884;4.322;2022-09-09T10:57:47;19.50;99.90
22781;DHT22;11557;50.884;4.322;2022-09-09T11:02:40;19.60;99.90
22781;DHT22;11557;50.884;4.322;2022-09-09T11:05:19;19.80;99.90
22781;DHT22;11557;50.884;4.322;2022-09-09T11:07:50;19.70;99.90
22781;DHT22;11557;50.884;4.322;2022-09-09T11:10:28;19.50;99.90
22781;DHT22;11557;50.884;4.322;2022-09-09T11:13:02;19.30;99.90
22781;DHT22;11557;50.884;4.322;2022-09-09T11:15:39;19.30;99.90
22781;DHT22;11557;50.884;4.322;2022-09-09T11:18:12;19.50;99.90
22781;DHT22;11557;50.884;4.322;2022-09-09T11:20:39;19.60;99.90
22781;DHT22;11557;50.884;4.322;2022-09-09T11:23:15;19.40;99.90
22781;DHT22;11557;50.884;4.322;2022-09-09T11:25:47;19.40;99.90
22781;DHT22;11557;50.884;4.322;2022-09-09T11:31:19;19.30;99.90
22781;DHT22;11557;50.884;4.322;2022-09-09T11:34:03;19.40;99.90
22781;DHT22;11557;50.884;4.322;2022-09-09T11:42:23;19.50;99.90
22781;DHT22;11557;50.884;4.322;2022-09-09T11:44:49;19.40;99.90
22781;DHT22;11557;50.884;4.322;2022-09-09T11:47:30;19.30;99.90
22781;DHT22;11557;50.884;4.322;2022-09-09T11:52:45;19.00;99.90
22781;DHT22;11557;50.884;4.322;2022-09-09T11:57:39;19.20;99.90
22781;DHT22;11557;50.884;4.322;2022-09-09T12:00:06;19.20;99.90
22781;DHT22;11557;50.884;4.322;2022-09-09T12:02:32;19.30;99.90
22781;DHT22;11557;50.884;4.322;2022-09-09T12:05:06;19.30;99.90
22781;DHT22;11557;50.884;4.322;2022-09-09T12:10:19;19.30;99.90
22781;DHT22;11557;50.884;4.322;2022-09-09T12:12:45;19.40;99.90
22781;DHT22;11557;50.884;4.322;2022-09-09T12:17:49;19.50;99.90
22781;DHT22;11557;50.884;4.322;2022-09-09T12:26:14;19.20;99.90
22781;DHT22;11557;50.884;4.322;2022-09-09T12:28:58;19.40;99.90
22781;DHT22;11557;50.884;4.322;2022-09-09T12:31:44;19.60;99.90
22781;DHT22;11557;50.884;4.322;2022-09-09T12:36:53;19.60;99.90
22781;DHT22;11557;50.884;4.322;2022-09-09T12:39:35;19.60;99.90
22781;DHT22;11557;50.884;4.322;2022-09-09T12:42:02;19.60;99.90
22781;DHT22;11557;50.884;4.322;2022-09-09T12:44:30;19.80;99.90
22781;DHT22;11557;50.884;4.322;2022-09-09T12:46:59;19.80;99.90
22781;DHT22;11557;50.884;4.322;2022-09-09T12:51:56;19.60;99.90
22781;DHT22;11557;50.884;4.322;2022-09-09T12:54:23;19.50;99.90
22781;DHT22;11557;50.884;4.322;2022-09-09T12:56:49;19.60;99.90
22781;DHT22;11557;50.884;4.322;2022-09-09T12:59:27;19.70;99.90
22781;DHT22;11557;50.884;4.322;2022-09-09T13:01:59;20.00;99.90
22781;DHT22;11557;50.884;4.322;2022-09-09T13:04:25;20.10;99.90
22781;DHT22;11557;50.884;4.322;2022-09-09T13:06:51;19.80;99.90
22781;DHT22;11557;50.884;4.322;2022-09-09T13:09:18;19.80;99.90
22781;DHT22;11557;50.884;4.322;2022-09-09T13:11:48;19.90;99.90
22781;DHT22;11557;50.884;4.322;2022-09-09T13:14:35;19.80;99.90
22781;DHT22;11557;50.884;4.322;2022-09-09T13:17:04;19.90;99.90
22781;DHT22;11557;50.884;4.322;2022-09-09T13:19:38;19.90;99.90
22781;DHT22;11557;50.884;4.322;2022-09-09T13:22:34;20.00;99.90
22781;DHT22;11557;50.884;4.322;2022-09-09T13:25:22;20.00;99.90
22781;DHT22;11557;50.884;4.322;2022-09-09T13:28:02;19.90;99.90
22781;DHT22;11557;50.884;4.322;2022-09-09T13:30:34;19.90;99.90
22781;DHT22;11557;50.884;4.322;2022-09-09T13:35:58;20.00;99.90
22781;DHT22;11557;50.884;4.322;2022-09-09T13:38:25;20.20;99.90
22781;DHT22;11557;50.884;4.322;2022-09-09T13:43:22;20.60;99.90
22781;DHT22;11557;50.884;4.322;2022-09-09T13:46:03;20.70;99.90
22781;DHT22;11557;50.884;4.322;2022-09-09T13:48:29;20.90;99.90
22781;DHT22;11557;50.884;4.322;2022-09-09T13:51:01;21.20;99.90
22781;DHT22;11557;50.884;4.322;2022-09-09T13:53:30;21.30;99.90
22781;DHT22;11557;50.884;4.322;2022-09-09T13:55:56;21.20;99.90
22781;DHT22;11557;50.884;4.322;2022-09-09T13:58:23;21.20;99.90
22781;DHT22;11557;50.884;4.322;2022-09-09T14:00:51;21.00;99.90
22781;DHT22;11557;50.884;4.322;2022-09-09T14:03:17;21.00;99.90
22781;DHT22;11557;50.884;4.322;2022-09-09T14:05:44;20.80;99.90
22781;DHT22;11557;50.884;4.322;2022-09-09T14:08:20;21.00;99.90
22781;DHT22;11557;50.884;4.322;2022-09-09T14:10:47;21.20;99.90
22781;DHT22;11557;50.884;4.322;2022-09-09T14:13:12;21.30;99.90
22781;DHT22;11557;50.884;4.322;2022-09-09T14:15:38;21.20;99.90
22781;DHT22;11557;50.884;4.322;2022-09-09T14:18:04;21.00;99.90
22781;DHT22;11557;50.884;4.322;2022-09-09T14:20:29;20.90;99.90
22781;DHT22;11557;50.884;4.322;2022-09-09T14:22:55;20.80;99.90
22781;DHT22;11557;50.884;4.322;2022-09-09T14:25:23;20.80;99.90
22781;DHT22;11557;50.884;4.322;2022-09-09T14:27:48;20.70;99.90
22781;DHT22;11557;50.884;4.322;2022-09-09T14:30:16;20.60;99.90
22781;DHT22;11557;50.884;4.322;2022-09-09T14:32:42;20.50;99.90
22781;DHT22;11557;50.884;4.322;2022-09-09T14:35:08;20.60;99.90
22781;DHT22;11557;50.884;4.322;2022-09-09T14:37:33;20.70;99.90
22781;DHT22;11557;50.884;4.322;2022-09-09T14:40:00;20.80;99.90
22781;DHT22;11557;50.884;4.322;2022-09-09T14:42:25;20.80;99.90
22781;DHT22;11557;50.884;4.322;2022-09-09T14:44:52;20.60;99.90
22781;DHT22;11557;50.884;4.322;2022-09-09T14:47:17;20.70;99.90
22781;DHT22;11557;50.884;4.322;2022-09-09T14:49:43;20.80;99.90
22781;DHT22;11557;50.884;4.322;2022-09-09T14:52:09;20.90;99.90
22781;DHT22;11557;50.884;4.322;2022-09-09T14:54:35;20.90;99.90
22781;DHT22;11557;50.884;4.322;2022-09-09T14:57:01;21.00;99.90
22781;DHT22;11557;50.884;4.322;2022-09-09T14:59:26;20.90;99.90
22781;DHT22;11557;50.884;4.322;2022-09-09T15:01:52;20.90;99.90
22781;DHT22;11557;50.884;4.322;2022-09-09T15:04:19;20.90;99.90
22781;DHT22;11557;50.884;4.322;2022-09-09T15:06:45;20.80;99.90
22781;DHT22;11557;50.884;4.322;2022-09-09T15:09:14;20.60;99.90
22781;DHT22;11557;50.884;4.322;2022-09-09T15:11:39;20.50;99.90
22781;DHT22;11557;50.884;4.322;2022-09-09T15:14:07;20.60;99.90
22781;DHT22;11557;50.884;4.322;2022-09-09T15:16:33;20.70;99.90
22781;DHT22;11557;50.884;4.322;2022-09-09T15:19:00;20.80;99.90
22781;DHT22;11557;50.884;4.322;2022-09-09T15:21:31;20.70;99.90
22781;DHT22;11557;50.884;4.322;2022-09-09T15:23:58;20.80;99.90
22781;DHT22;11557;50.884;4.322;2022-09-09T15:26:24;20.80;99.90
22781;DHT22;11557;50.884;4.322;2022-09-09T15:28:51;20.80;99.90
22781;DHT22;11557;50.884;4.322;2022-09-09T15:31:24;20.90;99.90
22781;DHT22;11557;50.884;4.322;2022-09-09T15:33:52;20.80;99.90
22781;DHT22;11557;50.884;4.322;2022-09-09T15:38:47;20.40;99.90
22781;DHT22;11557;50.884;4.322;2022-09-09T15:41:14;20.30;99.90
22781;DHT22;11557;50.884;4.322;2022-09-09T15:43:44;20.40;99.90
22781;DHT22;11557;50.884;4.322;2022-09-09T15:48:43;20.30;99.90
22781;DHT22;11557;50.884;4.322;2022-09-09T15:51:10;20.40;99.90
22781;DHT22;11557;50.884;4.322;2022-09-09T15:53:37;20.40;99.90
22781;DHT22;11557;50.884;4.322;2022-09-09T15:56:08;20.30;99.90
22781;DHT22;11557;50.884;4.322;2022-09-09T15:58:35;20.30;99.90
22781;DHT22;11557;50.884;4.322;2022-09-09T16:01:04;20.10;99.90
22781;DHT22;11557;50.884;4.322;2022-09-09T16:03:38;20.10;99.90
22781;DHT22;11557;50.884;4.322;2022-09-09T16:06:04;20.10;99.90
22781;DHT22;11557;50.884;4.322;2022-09-09T16:08:54;20.10;99.90
22781;DHT22;11557;50.884;4.322;2022-09-09T16:11:32;20.20;99.90
22781;DHT22;11557;50.884;4.322;2022-09-09T16:13:59;20.20;99.90
22781;DHT22;11557;50.884;4.322;2022-09-09T16:16:29;20.40;99.90
22781;DHT22;11557;50.884;4.322;2022-09-09T16:19:06;20.50;99.90
22781;DHT22;11557;50.884;4.322;2022-09-09T16:21:44;20.40;99.90
22781;DHT22;11557;50.884;4.322;2022-09-09T16:24:14;20.20;99.90
22781;DHT22;11557;50.884;4.322;2022-09-09T16:26:43;20.10;99.90
22781;DHT22;11557;50.884;4.322;2022-09-09T16:29:13;20.10;99.90
22781;DHT22;11557;50.884;4.322;2022-09-09T16:31:40;20.20;99.90
22781;DHT22;11557;50.884;4.322;2022-09-09T16:34:06;20.20;99.90
22781;DHT22;11557;50.884;4.322;2022-09-09T16:36:34;20.20;99.90
22781;DHT22;11557;50.884;4.322;2022-09-09T16:39:02;20.20;99.90
22781;DHT22;11557;50.884;4.322;2022-09-09T16:41:29;20.10;99.90
22781;DHT22;11557;50.884;4.322;2022-09-09T16:43:55;20.10;99.90
22781;DHT22;11557;50.884;4.322;2022-09-09T16:46:22;20.10;99.90
22781;DHT22;11557;50.884;4.322;2022-09-09T16:48:50;20.10;99.90
22781;DHT22;11557;50.884;4.322;2022-09-09T16:51:21;19.90;99.90
22781;DHT22;11557;50.884;4.322;2022-09-09T16:53:48;19.90;99.90
22781;DHT22;11557;50.884;4.322;2022-09-09T16:56:17;20.10;99.90
22781;DHT22;11557;50.884;4.322;2022-09-09T16:58:48;20.20;99.90
22781;DHT22;11557;50.884;4.322;2022-09-09T17:01:14;20.40;99.90
22781;DHT22;11557;50.884;4.322;2022-09-09T17:03:40;20.20;99.90
22781;DHT22;11557;50.884;4.322;2022-09-09T17:06:11;20.30;99.90
22781;DHT22;11557;50.884;4.322;2022-09-09T17:08:38;20.00;99.90
22781;DHT22;11557;50.884;4.322;2022-09-09T17:11:11;20.00;99.90
22781;DHT22;11557;50.884;4.322;2022-09-09T17:13:39;20.00;99.90
22781;DHT22;11557;50.884;4.322;2022-09-09T17:16:05;20.10;99.90
22781;DHT22;11557;50.884;4.322;2022-09-09T17:18:30;20.10;99.90
22781;DHT22;11557;50.884;4.322;2022-09-09T17:21:03;20.00;99.90
22781;DHT22;11557;50.884;4.322;2022-09-09T17:23:28;20.00;99.90
22781;DHT22;11557;50.884;4.322;2022-09-09T17:25:58;19.90;99.90
22781;DHT22;11557;50.884;4.322;2022-09-09T17:28:24;19.70;99.90
22781;DHT22;11557;50.884;4.322;2022-09-09T17:30:52;19.60;99.90
22781;DHT22;11557;50.884;4.322;2022-09-09T17:33:18;19.60;99.90
22781;DHT22;11557;50.884;4.322;2022-09-09T17:35:45;19.70;99.90
22781;DHT22;11557;50.884;4.322;2022-09-09T17:38:11;19.60;99.90
22781;DHT22;11557;50.884;4.322;2022-09-09T17:40:37;19.50;99.90
22781;DHT22;11557;50.884;4.322;2022-09-09T17:43:04;19.50;99.90
22781;DHT22;11557;50.884;4.322;2022-09-09T17:45:30;19.50;99.90
22781;DHT22;11557;50.884;4.322;2022-09-09T17:47:56;19.50;99.90
22781;DHT22;11557;50.884;4.322;2022-09-09T17:50:22;19.40;99.90
22781;DHT22;11557;50.884;4.322;2022-09-09T17:52:47;19.30;99.90
22781;DHT22;11557;50.884;4.322;2022-09-09T17:55:13;19.30;99.90
22781;DHT22;11557;50.884;4.322;2022-09-09T17:57:40;19.30;99.90
22781;DHT22;11557;50.884;4.322;2022-09-09T18:00:07;19.20;99.90
22781;DHT22;11557;50.884;4.322;2022-09-09T18:02:33;19.10;99.90